Time;durP1;ratioP1;P1;durP2;ratioP2;P2;SDS_P1;SDS_P2;PMS_P1;PMS_P2;Temp;Humidity;BMP_temperature;BMP_pressure;BME280_temperature;BME280_humidity;BME280_pressure;Samples;Min_cycle;Max_cycle;Signal;HPM_P1;HPM_P2
2021/09/11 17:11:30;;;;;;;12.97;7.63;;;;;;;;;;6139368;22;2195339;-93
2021/09/11 17:14:38;;;;;;;10.45;6.93;;;;;;;;;;6173044;23;20165;-92
2021/09/11 17:17:43;;;;;;;11.98;6.80;;;;;;;;;;6174703;23;20175;-93
2021/09/11 17:20:48;;;;;;;14.40;6.50;;;;;;;;;;6175158;23;20241;-93
2021/09/11 17:23:53;;;;;;;12.65;8.82;;;;;;;;;;6174396;23;20236;-93
2021/09/11 17:26:59;;;;;;;9.68;6.18;;;;;;;;;;6175021;23;20167;-92
2021/09/11 17:30:06;;;;;;;13.95;7.32;;;;;;;;;;6172724;23;20220;-91
2021/09/11 17:33:12;;;;;;;10.40;6.85;;;;;;;;;;6172053;23;20221;-94
2021/09/11 17:36:17;;;;;;;13.30;9.57;;;;;;;;;;6174897;23;20189;-93
2021/09/11 17:39:23;;;;;;;9.20;6.30;;;;;;;;;;6173351;23;20191;-93
2021/09/11 17:42:28;;;;;;;9.30;6.05;;;;;;;;;;6171795;23;20200;-94
2021/09/11 17:45:37;;;;;;;9.88;6.68;;;;;;;;;;6172496;23;20169;-94
2021/09/11 17:48:42;;;;;;;10.95;6.43;;;;;;;;;;6171692;23;20183;-93
2021/09/11 17:51:48;;;;;;;9.95;6.35;;;;;;;;;;6171856;23;20285;-93
2021/09/11 17:54:53;;;;;;;16.38;6.93;;;;;;;;;;6171944;23;20148;-95
2021/09/11 17:57:59;;;;;;;12.55;6.95;;;;;;;;;;6171532;23;20172;-93
2021/09/11 18:01:05;;;;;;;8.90;6.10;;;;;;;;;;6170977;23;20241;-92
2021/09/11 18:04:11;;;;;;;12.18;6.93;;;;;;;;;;6171920;23;20200;-92
2021/09/11 18:07:17;;;;;;;10.45;6.20;;;;;;;;;;6172053;23;20673;-93
2021/09/11 18:10:23;;;;;;;12.07;6.85;;;;;;;;;;6172296;23;20212;-92
2021/09/11 18:13:29;;;;;;;12.98;8.27;;;;;;;;;;6171511;23;20233;-92
2021/09/11 18:16:38;;;;;;;14.40;7.40;;;;;;;;;;6175676;23;20252;-93
2021/09/11 18:19:44;;;;;;;10.13;7.40;;;;;;;;;;6174497;23;20188;-93
2021/09/11 18:22:57;;;;;;;11.85;7.43;;;;;;;;;;6175240;23;20315;-92
2021/09/11 18:26:07;;;;;;;10.25;7.45;;;;;;;;;;6175457;23;20172;-92
2021/09/11 18:32:37;;;;;;;16.25;10.75;;;;;;;;;;6114405;23;20549;-93
2021/09/11 22:05:46;;;;;;;26.05;14.57;;;;;;;;;;6204033;23;20160;-93
2021/09/11 22:08:52;;;;;;;19.30;12.00;;;;;;;;;;6186567;23;20168;-93
2021/09/11 22:11:58;;;;;;;26.23;11.93;;;;;;;;;;6205401;22;20236;-93
2021/09/11 22:15:04;;;;;;;23.02;12.40;;;;;;;;;;6202367;22;20168;-93
2021/09/11 22:18:12;;;;;;;17.98;10.45;;;;;;;;;;6202971;22;20207;-92
2021/09/11 22:21:19;;;;;;;12.15;8.98;;;;;;;;;;6204757;22;20192;-92
2021/09/11 22:24:24;;;;;;;14.48;9.35;;;;;;;;;;6204827;22;20188;-92
2021/09/11 22:27:30;;;;;;;12.20;8.88;;;;;;;;;;6203645;22;20171;-93
2021/09/11 22:30:35;;;;;;;14.15;8.88;;;;;;;;;;6202543;23;20223;-93
2021/09/11 22:33:41;;;;;;;17.25;9.48;;;;;;;;;;6202563;23;20167;-93
2021/09/11 22:36:48;;;;;;;17.13;9.45;;;;;;;;;;6204320;22;20167;-93
2021/09/11 22:39:53;;;;;;;13.27;9.02;;;;;;;;;;6202900;23;20194;-93
2021/09/11 22:42:59;;;;;;;12.68;9.20;;;;;;;;;;6203470;22;20492;-92
2021/09/11 22:46:04;;;;;;;16.02;8.98;;;;;;;;;;6206235;23;20171;-93
2021/09/11 22:49:10;;;;;;;17.95;9.85;;;;;;;;;;6207352;23;20156;-93
2021/09/11 22:52:17;;;;;;;13.13;9.32;;;;;;;;;;6206909;22;20172;-93
2021/09/11 22:55:23;;;;;;;16.48;10.15;;;;;;;;;;6204726;23;20187;-92
2021/09/11 22:58:28;;;;;;;14.88;9.38;;;;;;;;;;6204331;23;20183;-93
2021/09/11 23:01:34;;;;;;;12.77;8.85;;;;;;;;;;6202694;22;20191;-92
2021/09/11 23:04:39;;;;;;;15.55;9.55;;;;;;;;;;6203554;22;20164;-93
2021/09/11 23:07:46;;;;;;;14.32;9.63;;;;;;;;;;6201510;23;20171;-93
2021/09/11 23:10:52;;;;;;;15.93;9.35;;;;;;;;;;6202874;22;20179;-92
2021/09/11 23:13:57;;;;;;;12.65;8.95;;;;;;;;;;6204755;22;20171;-93
2021/09/11 23:17:06;;;;;;;15.18;9.07;;;;;;;;;;6201938;23;20176;-93
2021/09/11 23:20:12;;;;;;;13.10;8.40;;;;;;;;;;6201228;23;20191;-92
2021/09/11 23:23:20;;;;;;;13.88;9.35;;;;;;;;;;6201649;22;20171;-93
2021/09/11 23:26:25;;;;;;;16.67;9.13;;;;;;;;;;6202039;22;20172;-92
2021/09/11 23:29:30;;;;;;;14.30;8.93;;;;;;;;;;6201092;22;20192;-93
2021/09/11 23:32:35;;;;;;;12.43;9.27;;;;;;;;;;6201283;22;20215;-92
2021/09/11 23:35:40;;;;;;;12.77;8.43;;;;;;;;;;6200226;22;20234;-93
2021/09/11 23:38:47;;;;;;;14.20;9.10;;;;;;;;;;6202392;22;20191;-93
2021/09/11 23:41:52;;;;;;;12.25;8.82;;;;;;;;;;6200842;23;20246;-93
2021/09/11 23:44:58;;;;;;;13.88;9.02;;;;;;;;;;6201368;23;20316;-91
2021/09/11 23:48:03;;;;;;;18.55;10.60;;;;;;;;;;6200139;22;20168;-92
2021/09/11 23:51:08;;;;;;;14.95;9.80;;;;;;;;;;6201405;23;20168;-92
2021/09/11 23:54:14;;;;;;;12.68;8.57;;;;;;;;;;6200504;23;20172;-94
2021/09/11 23:57:19;;;;;;;15.93;9.18;;;;;;;;;;6201157;22;20287;-92
